Time;durP1;ratioP1;P1;durP2;ratioP2;P2;SDS_P1;SDS_P2;PMS_P1;PMS_P2;Temp;Humidity;BMP_temperature;BMP_pressure;BME280_temperature;BME280_humidity;BME280_pressure;Samples;Min_cycle;Max_cycle;Signal;HPM_P1;HPM_P2
2022/12/23 00:00:09;;;;;;;137.13;54.20;;;;;;;-141.97;90.35;47878.53;5012841;28;20190;-82
2022/12/23 00:02:34;;;;;;;536.37;188.97;;;;;;;-141.97;90.78;47822.78;5012882;28;20568;-83
2022/12/23 00:05:00;;;;;;;419.40;141.77;;;;;;;-141.97;90.88;47817.00;5012538;28;20409;-82
2022/12/23 00:07:25;;;;;;;216.93;77.83;;;;;;;-141.97;90.68;47793.94;5012461;28;20163;-82
2022/12/23 00:09:50;;;;;;;156.33;57.63;;;;;;;-141.97;90.65;47778.56;5012484;28;20165;-82
2022/12/23 00:15:06;;;;;;;163.77;63.20;;;;;;;-141.97;90.39;47793.94;5013105;28;20233;-82
2022/12/23 00:17:33;;;;;;;198.93;69.33;;;;;;;-141.97;90.16;47836.22;5033922;28;20424;-82
2022/12/23 00:19:59;;;;;;;253.57;87.10;;;;;;;-141.97;89.78;47817.00;5027929;28;20468;-82
2022/12/23 00:23:03;;;;;;;238.63;82.37;;;;;;;-141.97;89.43;47817.00;5017699;28;20468;-83
2022/12/23 00:25:11;;;;;;;192.40;67.70;;;;;;;-141.97;89.35;47866.97;5015572;28;20198;-82
2022/12/23 00:27:36;;;;;;;178.40;63.47;;;;;;;-141.97;88.71;47882.38;5015444;28;20394;-82
2022/12/23 00:30:03;;;;;;;196.13;64.23;;;;;;;-141.97;88.39;47836.22;5015680;28;20398;-82
2022/12/23 00:32:28;;;;;;;184.53;63.47;;;;;;;-141.97;88.35;47842.00;5023099;28;20158;-82
2022/12/23 00:34:54;;;;;;;181.53;64.37;;;;;;;-141.97;88.06;47761.25;5031021;28;20835;-82
2022/12/23 00:37:19;;;;;;;169.77;60.10;;;;;;;-141.97;87.90;47792.03;5025003;28;20226;-82
2022/12/23 00:45:15;;;;;;;227.50;56.53;;;;;;;-141.97;87.10;47817.00;5014085;28;20464;-82
2022/12/23 00:50:26;;;;;;;153.53;54.20;;;;;;;-141.97;87.09;47834.31;5012626;28;20464;-82
2022/12/23 00:52:51;;;;;;;170.73;55.50;;;;;;;-141.97;87.07;47826.63;5012482;28;20489;-82
2022/12/23 00:55:17;;;;;;;184.10;55.60;;;;;;;-141.97;87.54;47815.09;5012363;28;20155;-83
2022/12/23 00:57:43;;;;;;;156.60;53.73;;;;;;;-141.97;87.48;47842.00;5018173;28;20151;-85
2022/12/23 01:00:08;;;;;;;172.13;55.57;;;;;;;-141.97;87.93;47803.56;4996144;28;20206;-83
2022/12/23 01:05:35;;;;;;;167.18;57.88;;;;;;;-141.97;90.44;47818.94;5011868;28;20277;-83
2022/12/23 01:08:00;;;;;;;169.35;57.67;;;;;;;-141.97;91.24;47853.53;5011833;28;20232;-83
2022/12/23 01:10:26;;;;;;;171.03;59.17;;;;;;;-141.97;90.98;47799.72;5011698;28;20301;-83
2022/12/23 01:12:51;;;;;;;143.90;54.63;;;;;;;-141.97;91.10;47861.22;5012260;28;20206;-83
2022/12/23 01:15:16;;;;;;;149.30;54.50;;;;;;;-141.97;91.10;47790.09;5011876;28;20166;-84
2022/12/23 01:17:42;;;;;;;153.90;55.73;;;;;;;-141.97;90.27;47828.53;5012028;28;20554;-83
2022/12/23 01:20:08;;;;;;;165.47;57.83;;;;;;;-141.97;90.12;47845.84;5023943;28;20201;-82
2022/12/23 01:22:33;;;;;;;155.73;58.00;;;;;;;-141.97;90.31;47797.78;5017491;28;20643;-83
2022/12/23 01:24:58;;;;;;;170.33;57.60;;;;;;;-141.97;90.55;47853.53;5013918;28;20611;-83
2022/12/23 01:27:24;;;;;;;160.00;55.00;;;;;;;-141.97;91.25;47828.53;5016186;28;20166;-83
2022/12/23 01:29:49;;;;;;;158.47;56.67;;;;;;;-141.97;91.23;47834.31;5015553;28;20163;-83
2022/12/23 01:32:14;;;;;;;164.07;60.53;;;;;;;-141.97;91.43;47830.47;5015500;28;20167;-81
2022/12/23 01:34:40;;;;;;;154.37;57.60;;;;;;;-141.97;91.31;47834.31;5015926;28;20202;-81
2022/12/23 01:37:05;;;;;;;146.87;52.67;;;;;;;-141.97;90.71;47838.16;5015465;28;20230;-83
2022/12/23 01:39:31;;;;;;;144.43;55.23;;;;;;;-141.97;90.62;47838.16;5014945;28;20187;-81
2022/12/23 01:44:49;;;;;;;133.77;52.23;;;;;;;-141.97;90.25;47818.94;5015310;28;20251;-81
2022/12/23 01:47:24;;;;;;;135.67;53.53;;;;;;;-141.97;90.16;47818.94;5014025;28;20913;-81
2022/12/23 01:49:54;;;;;;;143.57;54.50;;;;;;;-141.97;90.30;47818.94;5015166;28;20489;-83
2022/12/23 01:52:21;;;;;;;139.80;52.37;;;;;;;-141.97;89.89;47826.63;5015301;28;20800;-81
2022/12/23 01:54:46;;;;;;;140.93;51.73;;;;;;;-141.97;90.25;47840.06;5027804;28;20402;-83
2022/12/23 01:57:12;;;;;;;137.83;53.07;;;;;;;-141.97;90.41;47895.81;5024947;28;20493;-83
2022/12/23 02:05:07;;;;;;;143.60;53.60;;;;;;;-141.97;89.68;47832.38;5042956;28;20875;-81
2022/12/23 02:10:18;;;;;;;143.75;54.33;;;;;;;-141.97;89.82;47840.06;5056153;28;20465;-83
2022/12/23 02:12:44;;;;;;;133.83;49.40;;;;;;;-141.97;89.35;47842.00;5056247;28;20635;-82
2022/12/23 02:18:57;;;;;;;128.30;47.27;;;;;;;-141.97;88.69;47845.84;5055043;28;20243;-82
2022/12/23 02:22:07;;;;;;;127.80;46.27;;;;;;;-141.97;88.92;47840.06;5055341;28;20899;-82
2022/12/23 02:24:44;;;;;;;122.55;46.80;;;;;;;-141.97;88.59;47845.84;4973376;28;20420;-82
2022/12/23 02:27:32;;;;;;;127.83;47.30;;;;;;;-141.97;89.44;47815.09;4973166;28;20176;-82
2022/12/23 02:30:36;;;;;;;124.57;47.07;;;;;;;-141.97;89.52;47818.94;4973090;28;20419;-82
2022/12/23 02:33:10;;;;;;;120.20;47.15;;;;;;;-141.97;89.88;47834.31;4973560;28;20469;-84
2022/12/23 02:35:51;;;;;;;115.10;46.15;;;;;;;-141.97;90.05;47818.94;4973549;28;20295;-83
2022/12/23 02:38:19;;;;;;;116.65;43.63;;;;;;;-141.97;90.64;47792.03;4972855;28;20325;-82
2022/12/23 02:40:52;;;;;;;119.90;45.95;;;;;;;-141.97;91.67;47792.03;4973338;28;20191;-82
2022/12/23 02:43:23;;;;;;;113.10;45.38;;;;;;;-141.97;92.12;47826.63;4973382;28;20180;-82
2022/12/23 02:46:24;;;;;;;119.20;45.08;;;;;;;-141.97;92.27;47805.47;4956937;28;20187;-82
2022/12/23 02:48:59;;;;;;;118.05;45.40;;;;;;;-141.97;91.78;47822.78;4897084;29;20183;-82
2022/12/23 02:51:31;;;;;;;113.63;46.33;;;;;;;-141.97;91.69;47845.84;4897407;29;20180;-82
2022/12/23 02:54:01;;;;;;;111.35;45.20;;;;;;;-141.97;91.24;47863.13;4897827;29;20286;-82
2022/12/23 02:56:31;;;;;;;109.97;42.38;;;;;;;-141.97;91.26;47830.47;4954778;29;20177;-82
2022/12/23 02:59:06;;;;;;;113.30;45.60;;;;;;;-141.97;92.01;47849.69;4953565;29;20220;-82
2022/12/23 03:01:33;;;;;;;109.30;43.75;;;;;;;-141.97;91.72;47809.31;4953740;29;20271;-82
2022/12/23 03:03:58;;;;;;;121.00;45.55;;;;;;;-141.97;91.08;47813.16;4953717;29;20264;-82
2022/12/23 03:06:29;;;;;;;113.13;42.10;;;;;;;-141.97;90.91;47818.94;4953917;29;20623;-82
2022/12/23 03:08:56;;;;;;;108.43;43.40;;;;;;;-141.97;90.17;47857.38;4953597;29;20185;-82
2022/12/23 03:11:27;;;;;;;110.13;42.83;;;;;;;-141.97;89.91;47803.56;4954400;29;20432;-82
2022/12/23 03:14:11;;;;;;;106.00;42.13;;;;;;;-141.97;89.96;47853.53;4953651;29;21007;-82
2022/12/23 03:17:14;;;;;;;106.77;41.47;;;;;;;-141.97;89.54;47818.94;4953544;29;20400;-82
2022/12/23 03:20:00;;;;;;;111.93;43.43;;;;;;;-141.97;89.46;47811.25;4953752;29;20856;-82
2022/12/23 03:22:42;;;;;;;116.50;43.90;;;;;;;-141.97;89.60;47853.53;4954146;29;20412;-82
2022/12/23 03:25:11;;;;;;;107.00;42.20;;;;;;;-141.97;89.78;47842.00;5004050;28;20924;-82
2022/12/23 03:28:05;;;;;;;104.47;41.63;;;;;;;-141.97;90.88;47792.03;5053660;28;20415;-82
2022/12/23 03:30:33;;;;;;;106.30;42.95;;;;;;;-141.97;90.59;47834.31;4956542;28;20511;-82
2022/12/23 03:33:04;;;;;;;108.15;44.42;;;;;;;-141.97;91.10;47824.69;4956575;28;20230;-82
2022/12/23 03:35:36;;;;;;;118.53;45.25;;;;;;;-141.97;91.30;47865.06;4972801;28;20674;-82
2022/12/23 03:38:02;;;;;;;117.53;46.33;;;;;;;-141.97;91.39;47876.59;4972329;28;20227;-82
2022/12/23 03:40:56;;;;;;;118.20;45.57;;;;;;;-141.97;91.80;47813.16;4979451;28;20447;-82
2022/12/23 03:43:32;;;;;;;106.77;41.17;;;;;;;-141.97;91.93;47842.00;4907226;29;20453;-83
2022/12/23 03:46:09;;;;;;;97.43;38.13;;;;;;;-141.97;92.00;47842.00;4884286;29;20827;-83
2022/12/23 03:48:39;;;;;;;99.53;38.80;;;;;;;-141.97;92.30;47822.78;4897225;29;20457;-82
2022/12/23 03:51:14;;;;;;;104.97;41.07;;;;;;;-141.97;92.17;47811.25;4896530;29;20249;-81
2022/12/23 03:54:02;;;;;;;94.57;38.53;;;;;;;-141.97;91.98;47832.38;4896985;29;20442;-82
2022/12/23 03:56:31;;;;;;;92.47;36.73;;;;;;;-141.97;92.05;47815.09;4901796;29;20499;-82
2022/12/23 03:59:01;;;;;;;101.13;40.40;;;;;;;-141.97;92.20;47820.84;4910167;29;20467;-81
2022/12/23 04:02:04;;;;;;;79.23;33.60;;;;;;;-141.97;91.87;47811.25;4901425;29;20523;-82
2022/12/23 04:05:02;;;;;;;93.27;38.37;;;;;;;-141.97;92.19;47790.09;4898711;29;20426;-82
2022/12/23 04:07:33;;;;;;;92.33;38.63;;;;;;;-141.97;92.12;47813.16;4931958;29;20424;-82
2022/12/23 04:09:59;;;;;;;104.37;40.50;;;;;;;-141.97;92.76;47820.84;4953874;29;20408;-82
2022/12/23 04:12:26;;;;;;;127.33;51.50;;;;;;;-141.97;92.99;47868.91;4953981;29;20920;-83
2022/12/23 04:14:52;;;;;;;136.30;55.90;;;;;;;-141.97;93.23;47842.00;4953630;29;20515;-82
2022/12/23 04:17:18;;;;;;;104.87;44.63;;;;;;;-141.97;93.55;47830.47;4953336;29;20204;-82
2022/12/23 04:19:44;;;;;;;131.50;51.08;;;;;;;-141.97;95.01;47818.94;4981565;28;20689;-82
2022/12/23 04:22:11;;;;;;;128.25;48.55;;;;;;;-141.97;97.60;47824.69;5041808;28;20181;-81
2022/12/23 04:24:36;;;;;;;127.00;49.80;;;;;;;-141.97;99.28;47797.78;5042104;28;20181;-82
2022/12/23 04:27:02;;;;;;;118.63;47.23;;;;;;;-141.97;100.00;47838.16;5052900;28;20411;-81
2022/12/23 04:29:28;;;;;;;121.40;47.20;;;;;;;-141.97;100.00;47792.03;5051659;28;20169;-82
2022/12/23 04:31:53;;;;;;;106.20;42.70;;;;;;;-141.97;100.00;47830.47;5053003;28;20161;-82
2022/12/23 04:34:18;;;;;;;107.07;40.37;;;;;;;-141.97;100.00;47838.16;5052420;28;20180;-82
2022/12/23 04:36:44;;;;;;;110.50;38.27;;;;;;;-141.97;100.00;47818.94;5051600;28;20738;-83
2022/12/23 04:39:09;;;;;;;112.10;45.50;;;;;;;-141.97;99.70;47803.56;5052461;28;20189;-83
2022/12/23 04:41:35;;;;;;;116.23;44.07;;;;;;;-141.97;99.47;47838.16;5052468;28;20162;-83
2022/12/23 04:44:00;;;;;;;141.57;50.47;;;;;;;-141.97;100.00;47832.38;5051496;28;20641;-82
2022/12/23 04:46:25;;;;;;;127.60;48.93;;;;;;;-141.97;100.00;47897.75;5051958;28;20165;-82
2022/12/23 04:48:51;;;;;;;120.20;46.47;;;;;;;-141.97;100.00;47803.56;5051696;28;20172;-83
2022/12/23 04:51:16;;;;;;;138.93;50.70;;;;;;;-141.97;100.00;47795.88;5051664;28;20216;-84
2022/12/23 04:53:41;;;;;;;137.13;53.03;;;;;;;-141.97;100.00;47803.56;5051536;28;20201;-82
2022/12/23 04:56:07;;;;;;;149.37;57.70;;;;;;;-141.97;100.00;47807.41;5052098;28;20241;-83
2022/12/23 04:58:32;;;;;;;158.87;58.63;;;;;;;-141.97;100.00;47822.78;5051198;28;20232;-83
2022/12/23 05:01:02;;;;;;;162.40;59.00;;;;;;;-141.97;99.62;47818.94;5052077;28;20170;-83
2022/12/23 05:03:28;;;;;;;173.83;65.13;;;;;;;-141.97;99.07;47830.47;5053251;28;20166;-84
2022/12/23 05:05:54;;;;;;;246.70;89.03;;;;;;;-141.97;99.02;47809.31;5052657;28;20887;-82
2022/12/23 05:08:19;;;;;;;485.97;225.40;;;;;;;-141.97;98.19;47824.69;5051667;28;20256;-83
2022/12/23 05:10:44;;;;;;;308.50;120.17;;;;;;;-141.97;98.08;47807.41;5051967;28;20202;-82
2022/12/23 05:13:10;;;;;;;231.67;87.80;;;;;;;-141.97;98.08;47818.94;5051995;28;20548;-82
2022/12/23 05:15:35;;;;;;;175.27;69.57;;;;;;;-141.97;98.22;47859.28;5057450;28;20552;-82
2022/12/23 05:18:01;;;;;;;135.17;51.80;;;;;;;-141.97;98.16;47799.72;5053328;28;20166;-84
2022/12/23 05:20:26;;;;;;;134.57;52.30;;;;;;;-141.97;97.34;47815.09;5051914;28;20223;-83
2022/12/23 05:22:52;;;;;;;145.93;55.80;;;;;;;-141.97;97.63;47790.09;5051184;28;20170;-83
2022/12/23 05:25:17;;;;;;;138.63;54.97;;;;;;;-141.97;97.35;47842.00;5051067;28;20171;-83
2022/12/23 05:27:42;;;;;;;150.53;58.07;;;;;;;-141.97;98.25;47818.94;5050991;28;20219;-83
2022/12/23 05:30:08;;;;;;;150.70;60.90;;;;;;;-141.97;97.73;47834.31;5051132;28;20173;-83
2022/12/23 05:32:34;;;;;;;197.30;75.10;;;;;;;-141.97;97.98;47797.78;5048451;28;20192;-83
2022/12/23 05:34:59;;;;;;;343.17;120.57;;;;;;;-141.97;98.17;47845.84;5030573;28;20443;-83
2022/12/23 05:37:25;;;;;;;251.93;91.23;;;;;;;-141.97;97.79;47843.91;5030885;28;20229;-83
2022/12/23 05:39:50;;;;;;;261.60;99.33;;;;;;;-141.97;97.59;47807.41;5030997;28;20704;-82
2022/12/23 05:42:18;;;;;;;268.50;97.93;;;;;;;-141.97;97.55;47822.78;5029600;28;20281;-82
2022/12/23 05:44:44;;;;;;;379.77;140.27;;;;;;;-141.97;97.19;47799.72;5017864;28;20341;-85
2022/12/23 05:47:09;;;;;;;374.17;146.27;;;;;;;-141.97;97.74;47820.84;5031257;28;20428;-82
2022/12/23 05:49:35;;;;;;;374.33;154.20;;;;;;;-141.97;97.71;47788.19;5020799;28;20230;-82
2022/12/23 05:52:00;;;;;;;227.60;92.03;;;;;;;-141.97;97.15;47838.16;5032149;28;20186;-82
2022/12/23 05:54:26;;;;;;;199.03;82.87;;;;;;;-141.97;97.71;47809.31;5031905;28;20264;-82
2022/12/23 05:56:51;;;;;;;144.33;57.97;;;;;;;-141.97;98.44;47847.75;5032362;28;20201;-82
2022/12/23 05:59:16;;;;;;;178.13;71.53;;;;;;;-141.97;98.57;47824.69;5030116;28;20221;-83
2022/12/23 06:01:42;;;;;;;165.27;67.80;;;;;;;-141.97;98.25;47853.53;5021983;28;20182;-82
2022/12/23 06:04:07;;;;;;;268.00;93.53;;;;;;;-141.97;97.88;47811.25;5011983;28;20764;-82
2022/12/23 06:06:33;;;;;;;362.53;116.90;;;;;;;-141.97;98.36;47793.94;5011473;28;20174;-83
2022/12/23 06:08:58;;;;;;;203.97;78.10;;;;;;;-141.97;98.60;47818.94;5030543;28;20174;-82
2022/12/23 06:11:23;;;;;;;161.27;61.00;;;;;;;-141.97;98.69;47809.31;5033634;28;20178;-83
2022/12/23 06:13:49;;;;;;;136.90;53.37;;;;;;;-141.97;98.05;47884.28;5036605;28;20162;-82
2022/12/23 06:16:14;;;;;;;167.57;64.60;;;;;;;-141.97;98.17;47843.91;5036293;28;20174;-82
2022/12/23 06:18:39;;;;;;;145.33;54.00;;;;;;;-141.97;97.56;47803.56;5034966;28;20193;-82
2022/12/23 06:21:05;;;;;;;331.30;97.57;;;;;;;-141.97;97.68;47838.16;5017277;28;20619;-82
2022/12/23 06:23:30;;;;;;;323.70;94.63;;;;;;;-141.97;97.94;47818.94;5035072;28;20181;-82
2022/12/23 06:26:00;;;;;;;285.60;87.57;;;;;;;-141.97;97.99;47822.78;5033561;28;20193;-82
2022/12/23 06:28:26;;;;;;;238.57;75.77;;;;;;;-141.97;97.64;47797.78;5033387;28;20169;-82
2022/12/23 06:30:55;;;;;;;252.77;87.77;;;;;;;-141.97;97.71;47834.31;5033875;28;20408;-82
2022/12/23 06:33:22;;;;;;;261.00;87.50;;;;;;;-141.97;98.36;47853.53;5034119;28;20245;-83
2022/12/23 06:35:47;;;;;;;262.13;91.37;;;;;;;-141.97;98.11;47857.38;5033326;28;20478;-82
2022/12/23 06:38:13;;;;;;;275.50;96.40;;;;;;;-141.97;97.46;47870.81;5024073;28;20469;-82
2022/12/23 06:40:39;;;;;;;167.77;58.83;;;;;;;-141.97;96.89;47865.06;5014374;28;20256;-82
2022/12/23 06:43:04;;;;;;;136.17;48.77;;;;;;;-141.97;96.49;47818.94;5022399;28;20247;-82
2022/12/23 06:45:30;;;;;;;117.17;43.43;;;;;;;-141.97;95.83;47836.22;5033152;28;20181;-82
2022/12/23 06:47:55;;;;;;;117.87;46.47;;;;;;;-141.97;95.02;47822.78;5033620;28;20202;-82
2022/12/23 06:50:20;;;;;;;122.23;48.00;;;;;;;-141.97;95.13;47817.00;5038491;28;20162;-82
2022/12/23 06:52:47;;;;;;;126.07;47.20;;;;;;;-141.97;94.64;47799.72;5047097;28;20193;-82
2022/12/23 06:55:13;;;;;;;135.27;52.50;;;;;;;-141.97;94.55;47840.06;5034177;28;20167;-82
2022/12/23 06:57:38;;;;;;;160.03;60.73;;;;;;;-141.97;95.49;47815.09;5016001;28;20416;-82
2022/12/23 07:00:04;;;;;;;176.43;68.20;;;;;;;-141.97;91.95;47842.00;5033727;28;20190;-81
2022/12/23 07:02:29;;;;;;;174.73;70.10;;;;;;;-141.97;83.06;47865.06;5033622;28;20162;-83
2022/12/23 07:04:55;;;;;;;246.47;92.63;;;;;;;-141.97;81.31;47767.03;5042727;28;20166;-82
2022/12/23 07:07:20;;;;;;;197.63;82.20;;;;;;;-141.97;80.01;47861.22;5028039;28;20212;-82
2022/12/23 07:09:46;;;;;;;308.20;120.47;;;;;;;-141.97;81.06;47855.44;5036856;28;20161;-82
2022/12/23 07:12:11;;;;;;;403.13;164.67;;;;;;;-141.97;82.51;47843.91;5018557;28;20228;-82
2022/12/23 07:14:36;;;;;;;458.20;198.10;;;;;;;-141.97;72.43;47824.69;5033209;28;20664;-82
2022/12/23 07:17:02;;;;;;;473.87;213.37;;;;;;;-141.97;66.96;47888.13;5033024;28;20166;-83
2022/12/23 07:19:27;;;;;;;356.60;143.50;;;;;;;-141.97;63.94;47861.22;5032757;28;20615;-83
2022/12/23 07:21:52;;;;;;;320.37;129.23;;;;;;;-141.97;58.18;47849.69;5038737;28;20170;-83
2022/12/23 07:24:18;;;;;;;255.00;107.20;;;;;;;-141.97;56.94;47853.53;5042754;28;20166;-82
2022/12/23 07:26:43;;;;;;;252.37;111.90;;;;;;;-141.97;55.01;47834.31;5045522;28;20236;-83
2022/12/23 07:29:09;;;;;;;282.77;120.53;;;;;;;-141.97;56.20;47836.22;5039466;28;20158;-83
2022/12/23 07:31:34;;;;;;;250.30;110.73;;;;;;;-141.97;59.71;47822.78;5033682;28;20163;-82
2022/12/23 07:33:59;;;;;;;258.97;113.93;;;;;;;-141.97;64.23;47793.94;5023522;28;20178;-82
2022/12/23 07:36:25;;;;;;;390.47;166.10;;;;;;;-141.97;66.97;47838.16;5039993;28;20665;-83
2022/12/23 07:38:51;;;;;;;303.30;132.70;;;;;;;-141.97;68.48;47842.00;5000577;28;20679;-81
2022/12/23 07:41:17;;;;;;;407.27;183.93;;;;;;;-141.97;68.04;47805.47;5036934;28;20177;-85
2022/12/23 07:43:42;;;;;;;442.77;215.73;;;;;;;-141.97;70.05;47843.91;5042782;28;20638;-83
2022/12/23 07:46:08;;;;;;;339.80;139.43;;;;;;;-141.97;70.36;47788.19;5035965;28;20979;-83
2022/12/23 07:48:34;;;;;;;413.30;169.23;;;;;;;-141.97;71.64;47849.69;5032108;28;20175;-83
2022/12/23 07:51:03;;;;;;;297.20;121.83;;;;;;;-141.97;73.78;47870.81;5031975;28;20618;-83
2022/12/23 07:53:28;;;;;;;137.40;53.60;;;;;;;-141.97;73.11;47834.31;5032014;28;20168;-83
2022/12/23 07:55:55;;;;;;;117.53;47.40;;;;;;;-141.97;74.58;47824.69;5031889;28;20409;-83
2022/12/23 07:58:20;;;;;;;88.40;40.40;;;;;;;-141.97;75.15;47838.16;5031844;28;20631;-83
2022/12/23 08:00:45;;;;;;;92.50;40.70;;;;;;;-141.97;75.96;47820.84;5031976;28;20407;-82
2022/12/23 08:03:11;;;;;;;86.70;36.80;;;;;;;-141.97;75.62;47842.00;5031625;28;20549;-82
2022/12/23 08:05:36;;;;;;;81.80;37.23;;;;;;;-141.97;74.37;47836.22;5030895;28;20178;-83
2022/12/23 08:08:02;;;;;;;82.63;37.57;;;;;;;-141.97;72.67;47847.75;5031820;28;20162;-83
2022/12/23 08:10:27;;;;;;;95.40;40.77;;;;;;;-141.97;71.45;47793.94;5031677;28;20155;-83
2022/12/23 08:12:53;;;;;;;98.60;42.53;;;;;;;-141.97;70.10;47845.84;5031834;28;20645;-83
2022/12/23 08:15:19;;;;;;;117.87;52.50;;;;;;;-141.97;69.10;47843.91;5031808;28;20173;-83
2022/12/23 08:17:44;;;;;;;105.33;47.77;;;;;;;-141.97;67.78;47828.53;5031731;28;20166;-83
2022/12/23 08:20:10;;;;;;;121.07;54.27;;;;;;;-141.97;67.72;47826.63;5032270;28;20186;-82
2022/12/23 08:22:35;;;;;;;170.03;74.50;;;;;;;-141.97;66.70;47845.84;5031878;28;20181;-82
2022/12/23 08:25:01;;;;;;;154.47;63.93;;;;;;;-141.97;65.90;47842.00;5031474;28;20304;-82
2022/12/23 08:27:26;;;;;;;319.53;124.80;;;;;;;-141.97;65.15;47876.59;5029970;28;20174;-83
2022/12/23 08:29:52;;;;;;;235.13;94.67;;;;;;;-141.97;65.49;47915.03;5031727;28;20649;-82
2022/12/23 08:32:17;;;;;;;224.13;96.73;;;;;;;-141.97;65.15;47826.63;5031644;28;20171;-82
2022/12/23 08:34:42;;;;;;;205.40;93.67;;;;;;;-141.97;64.86;47840.06;5030297;28;20209;-83
2022/12/23 08:37:08;;;;;;;218.00;101.40;;;;;;;-141.97;65.21;47842.00;5030748;28;20228;-83
2022/12/23 08:39:33;;;;;;;135.43;59.63;;;;;;;-141.97;64.46;47853.53;5011725;28;20206;-82
2022/12/23 08:41:59;;;;;;;127.53;56.93;;;;;;;-141.97;64.37;47836.22;5011623;28;20169;-82
2022/12/23 08:44:26;;;;;;;94.77;46.17;;;;;;;-141.97;63.23;47813.16;5002237;28;20296;-84
2022/12/23 08:46:55;;;;;;;96.77;44.90;;;;;;;-141.97;63.10;47813.16;5012045;28;20253;-82
2022/12/23 08:49:21;;;;;;;129.07;53.53;;;;;;;-141.97;63.73;47830.47;5011675;28;20429;-82
2022/12/23 08:51:46;;;;;;;89.23;39.70;;;;;;;-141.97;64.43;47803.56;5011882;28;20409;-82
2022/12/23 08:54:12;;;;;;;76.33;37.07;;;;;;;-141.97;63.93;47842.00;5010390;28;20174;-83
2022/12/23 08:56:41;;;;;;;65.13;32.30;;;;;;;-141.97;64.29;47786.25;5011024;28;20181;-82
2022/12/23 08:59:15;;;;;;;78.20;37.57;;;;;;;-141.97;63.65;47824.69;5011713;28;20620;-82
2022/12/23 09:01:40;;;;;;;67.33;34.00;;;;;;;-141.97;63.11;47840.06;5011632;28;20161;-82
2022/12/23 09:04:06;;;;;;;69.00;32.70;;;;;;;-141.97;62.29;47818.94;5026512;28;20238;-82
2022/12/23 09:06:40;;;;;;;79.13;39.10;;;;;;;-141.97;62.85;47859.28;5011068;28;20189;-82
2022/12/23 09:09:07;;;;;;;76.40;36.00;;;;;;;-141.97;63.30;47855.44;5011772;28;20639;-82
2022/12/23 09:11:33;;;;;;;78.43;36.53;;;;;;;-141.97;63.70;47786.25;5011508;28;20552;-82
2022/12/23 09:14:00;;;;;;;65.53;32.33;;;;;;;-141.97;63.13;47807.41;5011663;28;20166;-81
2022/12/23 09:16:27;;;;;;;71.20;34.40;;;;;;;-141.97;63.22;47822.78;5011278;28;20174;-82
2022/12/23 09:18:52;;;;;;;104.73;45.80;;;;;;;-141.97;63.95;47849.69;5014809;28;20500;-81
2022/12/23 09:21:20;;;;;;;89.73;42.63;;;;;;;-141.97;63.62;47780.47;5045077;28;20170;-82
2022/12/23 09:23:46;;;;;;;75.90;34.67;;;;;;;-141.97;62.95;47842.00;5036149;28;20249;-83
2022/12/23 09:26:20;;;;;;;83.83;39.27;;;;;;;-141.97;63.22;47884.28;5030672;28;20177;-83
2022/12/23 09:28:46;;;;;;;80.93;36.23;;;;;;;-141.97;63.62;47770.88;5013407;28;20552;-83
2022/12/23 09:31:12;;;;;;;74.67;33.43;;;;;;;-141.97;64.82;47830.47;5025728;28;20178;-82
2022/12/23 09:33:38;;;;;;;62.90;27.60;;;;;;;-141.97;64.59;47805.47;5010815;28;20159;-83
2022/12/23 09:36:04;;;;;;;57.37;29.53;;;;;;;-141.97;64.29;47843.91;5010712;28;20180;-84
2022/12/23 09:38:30;;;;;;;69.53;32.83;;;;;;;-141.97;63.56;47826.63;5034911;28;20255;-83
2022/12/23 09:41:27;;;;;;;66.63;32.73;;;;;;;-141.97;62.60;47855.44;5051017;28;20443;-82
2022/12/23 09:44:08;;;;;;;66.70;34.23;;;;;;;-141.97;61.20;47851.59;5042239;28;20607;-83
2022/12/23 09:46:42;;;;;;;72.73;33.43;;;;;;;-141.97;59.99;47836.22;5036738;28;20616;-82
2022/12/23 09:49:14;;;;;;;71.07;32.40;;;;;;;-141.97;58.73;47842.00;5035308;28;20197;-82
2022/12/23 09:51:40;;;;;;;74.13;34.93;;;;;;;-141.97;59.89;47861.22;5016974;28;20647;-84
2022/12/23 09:54:14;;;;;;;64.43;31.57;;;;;;;-141.97;58.71;47893.91;5034520;28;20193;-83
2022/12/23 09:56:51;;;;;;;74.57;34.37;;;;;;;-141.97;57.57;47815.09;5034192;28;20701;-83
2022/12/23 09:59:35;;;;;;;71.63;34.17;;;;;;;-141.97;57.78;47845.84;5017440;28;20204;-81
2022/12/23 10:02:41;;;;;;;73.87;33.03;;;;;;;-141.97;57.05;47792.03;5034889;28;20198;-82
2022/12/23 10:05:40;;;;;;;71.60;35.37;;;;;;;-141.97;56.07;47820.84;4954237;29;20200;-83
2022/12/23 10:08:21;;;;;;;75.57;35.93;;;;;;;-141.97;56.29;47820.84;4954849;29;20224;-85
2022/12/23 10:10:51;;;;;;;69.57;34.67;;;;;;;-141.97;56.60;47845.84;4954412;29;20169;-83
2022/12/23 10:13:25;;;;;;;58.53;29.40;;;;;;;-141.97;55.78;47824.69;4970343;28;20207;-82
2022/12/23 10:15:53;;;;;;;93.77;42.93;;;;;;;-141.97;56.45;47842.00;4964937;28;20224;-83
2022/12/23 10:18:44;;;;;;;107.37;48.03;;;;;;;-141.97;56.69;47811.25;4954265;29;20696;-82
2022/12/23 10:21:46;;;;;;;130.93;56.93;;;;;;;-141.97;57.39;47809.31;4878196;29;20203;-84
2022/12/23 10:24:39;;;;;;;104.90;45.80;;;;;;;-141.97;55.96;47811.25;4841080;29;20299;-83
2022/12/23 10:27:27;;;;;;;71.30;34.73;;;;;;;-141.97;55.75;47792.03;4804742;29;20561;-82
2022/12/23 10:29:52;;;;;;;75.97;36.47;;;;;;;-141.97;54.02;47845.84;4804901;29;20202;-82
2022/12/23 10:32:42;;;;;;;88.50;41.33;;;;;;;-141.97;54.46;47830.47;4805116;29;20198;-83
2022/12/23 10:35:19;;;;;;;153.33;64.17;;;;;;;-141.97;55.35;47801.63;4812316;29;20266;-83
2022/12/23 10:37:59;;;;;;;102.23;45.63;;;;;;;-141.97;55.64;47815.09;4813360;29;20226;-82
2022/12/23 10:40:47;;;;;;;85.17;40.13;;;;;;;-141.97;55.28;47795.88;4814713;29;20648;-83
2022/12/23 10:43:22;;;;;;;79.37;38.47;;;;;;;-141.97;55.67;47830.47;4823897;29;20202;-82
2022/12/23 10:46:26;;;;;;;79.60;37.10;;;;;;;-141.97;56.02;47830.47;4821052;29;20267;-82
2022/12/23 10:49:09;;;;;;;74.93;38.17;;;;;;;-141.97;55.52;47805.47;4805826;29;20189;-81
2022/12/23 10:52:04;;;;;;;83.07;40.27;;;;;;;-141.97;55.27;47826.63;4810090;29;20201;-83
2022/12/23 10:54:32;;;;;;;80.87;39.17;;;;;;;-141.97;55.81;47786.25;4802038;29;20654;-83
2022/12/23 10:56:58;;;;;;;103.07;43.40;;;;;;;-141.97;56.16;47834.31;4815159;29;20202;-82
2022/12/23 10:59:27;;;;;;;97.83;43.13;;;;;;;-141.97;56.39;47922.72;4843955;29;20223;-83
2022/12/23 11:02:10;;;;;;;80.20;40.27;;;;;;;-141.97;56.75;47822.78;4903366;29;20217;-82
2022/12/23 11:04:40;;;;;;;85.93;41.17;;;;;;;-141.97;56.88;47845.84;4942995;29;20201;-81
2022/12/23 11:07:13;;;;;;;92.83;43.80;;;;;;;-141.97;56.37;47830.47;4936197;29;20200;-81
2022/12/23 11:09:42;;;;;;;100.37;45.53;;;;;;;-141.97;56.62;47832.38;4952629;29;20685;-82
2022/12/23 11:12:10;;;;;;;102.10;46.13;;;;;;;-141.97;56.97;47815.09;4953058;29;20192;-82
2022/12/23 11:14:50;;;;;;;98.40;45.53;;;;;;;-141.97;57.01;47828.53;4952836;29;20240;-82
2022/12/23 11:17:27;;;;;;;108.87;47.50;;;;;;;-141.97;56.13;47828.53;4953086;29;20181;-82
2022/12/23 11:20:17;;;;;;;419.43;182.93;;;;;;;-141.97;55.79;47834.31;4953207;29;20230;-83
2022/12/23 11:22:54;;;;;;;334.00;151.53;;;;;;;-141.97;55.65;47795.88;4952579;29;20216;-83
2022/12/23 11:25:45;;;;;;;129.67;55.53;;;;;;;-141.97;55.58;47813.16;4981134;28;20197;-84
2022/12/23 11:28:16;;;;;;;101.87;46.60;;;;;;;-141.97;55.38;47830.47;5020413;28;20171;-83
2022/12/23 11:30:44;;;;;;;104.33;47.60;;;;;;;-141.97;55.17;47843.91;5014148;28;20627;-84
2022/12/23 11:33:20;;;;;;;103.47;48.37;;;;;;;-141.97;55.05;47815.09;5014789;28;20572;-83
2022/12/23 11:35:45;;;;;;;103.57;48.63;;;;;;;-141.97;54.63;47811.25;5016794;28;20188;-84